sensor_id;sensor_type;location;lat;lon;timestamp;pressure;altitude;pressure_sealevel;temperature;humidity
55604;BME280;41468;48.838;9.330;2023-10-13T00:02:00;98382.78;;;18.42;67.53
55604;BME280;41468;48.838;9.330;2023-10-13T00:04:29;98382.06;;;18.38;67.85
55604;BME280;41468;48.838;9.330;2023-10-13T00:06:55;98385.53;;;18.42;67.03
55604;BME280;41468;48.838;9.330;2023-10-13T00:09:29;98376.84;;;18.44;67.52
55604;BME280;41468;48.838;9.330;2023-10-13T00:11:59;98382.38;;;18.44;67.12
55604;BME280;41468;48.838;9.330;2023-10-13T00:14:27;98374.47;;;18.42;69.17
55604;BME280;41468;48.838;9.330;2023-10-13T00:17:05;98374.94;;;18.37;73.02
55604;BME280;41468;48.838;9.330;2023-10-13T00:19:36;98369.19;;;18.28;73.20
55604;BME280;41468;48.838;9.330;2023-10-13T00:22:14;98367.72;;;18.20;72.43
55604;BME280;41468;48.838;9.330;2023-10-13T00:24:46;98362.25;;;18.16;71.42
55604;BME280;41468;48.838;9.330;2023-10-13T00:27:20;98358.81;;;18.08;71.18
55604;BME280;41468;48.838;9.330;2023-10-13T00:29:58;98367.34;;;17.91;71.64
55604;BME280;41468;48.838;9.330;2023-10-13T00:32:49;98364.19;;;17.88;71.77
55604;BME280;41468;48.838;9.330;2023-10-13T00:35:23;98362.47;;;17.67;71.78
55604;BME280;41468;48.838;9.330;2023-10-13T00:38:04;98361.31;;;17.65;72.19
55604;BME280;41468;48.838;9.330;2023-10-13T00:40:40;98356.06;;;17.74;70.39
55604;BME280;41468;48.838;9.330;2023-10-13T00:43:07;98359.06;;;17.56;70.68
55604;BME280;41468;48.838;9.330;2023-10-13T00:45:54;98363.97;;;17.41;72.61
55604;BME280;41468;48.838;9.330;2023-10-13T00:48:26;98368.66;;;17.44;71.32
55604;BME280;41468;48.838;9.330;2023-10-13T00:51:02;98366.31;;;17.43;71.15
55604;BME280;41468;48.838;9.330;2023-10-13T00:53:30;98366.38;;;17.39;70.51
55604;BME280;41468;48.838;9.330;2023-10-13T00:56:01;98368.34;;;17.39;69.49
55604;BME280;41468;48.838;9.330;2023-10-13T00:58:34;98367.19;;;17.36;68.72
55604;BME280;41468;48.838;9.330;2023-10-13T01:01:01;98366.88;;;17.27;70.51
55604;BME280;41468;48.838;9.330;2023-10-13T01:03:50;98360.75;;;17.12;70.19
55604;BME280;41468;48.838;9.330;2023-10-13T01:06:22;98361.91;;;17.11;69.56
55604;BME280;41468;48.838;9.330;2023-10-13T01:11:40;98368.75;;;16.99;70.19
55604;BME280;41468;48.838;9.330;2023-10-13T01:14:10;98354.25;;;16.92;71.04
55604;BME280;41468;48.838;9.330;2023-10-13T01:16:45;98352.69;;;16.91;69.83
55604;BME280;41468;48.838;9.330;2023-10-13T01:19:13;98356.94;;;16.99;70.11
55604;BME280;41468;48.838;9.330;2023-10-13T01:21:43;98352.09;;;17.10;68.37
55604;BME280;41468;48.838;9.330;2023-10-13T01:24:11;98344.13;;;17.19;68.90
55604;BME280;41468;48.838;9.330;2023-10-13T01:26:40;98347.41;;;17.07;69.38
55604;BME280;41468;48.838;9.330;2023-10-13T01:29:09;98335.16;;;17.08;69.43
55604;BME280;41468;48.838;9.330;2023-10-13T01:31:43;98337.09;;;17.11;70.51
55604;BME280;41468;48.838;9.330;2023-10-13T01:34:15;98336.03;;;17.02;71.65
55604;BME280;41468;48.838;9.330;2023-10-13T01:36:50;98337.59;;;17.03;70.11
55604;BME280;41468;48.838;9.330;2023-10-13T01:39:23;98336.38;;;17.07;70.22
55604;BME280;41468;48.838;9.330;2023-10-13T01:41:55;98345.97;;;16.92;70.86
55604;BME280;41468;48.838;9.330;2023-10-13T01:44:26;98339.97;;;17.00;70.74
55604;BME280;41468;48.838;9.330;2023-10-13T01:46:56;98342.50;;;16.84;70.71
55604;BME280;41468;48.838;9.330;2023-10-13T01:49:30;98336.13;;;16.91;71.37
55604;BME280;41468;48.838;9.330;2023-10-13T01:51:57;98341.66;;;16.91;68.79
55604;BME280;41468;48.838;9.330;2023-10-13T01:54:30;98338.94;;;16.87;70.00
55604;BME280;41468;48.838;9.330;2023-10-13T01:56:56;98340.97;;;16.76;70.88
55604;BME280;41468;48.838;9.330;2023-10-13T01:59:23;98335.50;;;16.72;71.09
55604;BME280;41468;48.838;9.330;2023-10-13T02:01:50;98323.66;;;16.75;70.84
55604;BME280;41468;48.838;9.330;2023-10-13T02:04:18;98332.34;;;16.74;71.19
55604;BME280;41468;48.838;9.330;2023-10-13T02:06:48;98327.19;;;16.76;70.61
55604;BME280;41468;48.838;9.330;2023-10-13T02:09:16;98318.66;;;16.63;70.67
55604;BME280;41468;48.838;9.330;2023-10-13T02:11:56;98318.72;;;16.56;70.66
55604;BME280;41468;48.838;9.330;2023-10-13T02:14:23;98319.97;;;16.48;70.92
55604;BME280;41468;48.838;9.330;2023-10-13T02:16:52;98314.44;;;16.48;71.05
55604;BME280;41468;48.838;9.330;2023-10-13T02:19:39;98316.72;;;16.56;70.24
55604;BME280;41468;48.838;9.330;2023-10-13T02:22:10;98312.38;;;16.59;68.25
55604;BME280;41468;48.838;9.330;2023-10-13T02:24:38;98308.81;;;16.62;69.27
55604;BME280;41468;48.838;9.330;2023-10-13T02:27:07;98313.53;;;16.62;69.23
55604;BME280;41468;48.838;9.330;2023-10-13T02:29:40;98304.00;;;16.70;68.31
55604;BME280;41468;48.838;9.330;2023-10-13T02:32:07;98305.50;;;16.82;66.28
55604;BME280;41468;48.838;9.330;2023-10-13T02:34:45;98291.25;;;16.87;64.59
55604;BME280;41468;48.838;9.330;2023-10-13T02:37:12;98288.75;;;16.99;63.96
55604;BME280;41468;48.838;9.330;2023-10-13T02:39:40;98283.13;;;17.10;63.89
55604;BME280;41468;48.838;9.330;2023-10-13T02:42:12;98294.16;;;17.10;63.59
55604;BME280;41468;48.838;9.330;2023-10-13T02:44:51;98286.19;;;17.19;63.57
55604;BME280;41468;48.838;9.330;2023-10-13T02:47:19;98284.28;;;17.13;64.30
55604;BME280;41468;48.838;9.330;2023-10-13T02:50:01;98290.91;;;17.19;62.93
55604;BME280;41468;48.838;9.330;2023-10-13T02:52:28;98281.00;;;17.21;62.57
55604;BME280;41468;48.838;9.330;2023-10-13T02:55:00;98274.97;;;17.34;62.67
55604;BME280;41468;48.838;9.330;2023-10-13T02:57:27;98274.97;;;17.34;62.73
55604;BME280;41468;48.838;9.330;2023-10-13T02:59:54;98270.59;;;17.36;62.26
55604;BME280;41468;48.838;9.330;2023-10-13T03:02:38;98274.59;;;17.32;62.42
55604;BME280;41468;48.838;9.330;2023-10-13T03:05:11;98271.88;;;17.28;63.14
55604;BME280;41468;48.838;9.330;2023-10-13T03:07:40;98260.00;;;17.31;63.28
55604;BME280;41468;48.838;9.330;2023-10-13T03:10:10;98269.94;;;17.25;62.67
55604;BME280;41468;48.838;9.330;2023-10-13T03:12:40;98256.94;;;17.26;62.20
55604;BME280;41468;48.838;9.330;2023-10-13T03:15:08;98261.69;;;17.21;62.09
55604;BME280;41468;48.838;9.330;2023-10-13T03:17:46;98268.44;;;17.20;62.17
55604;BME280;41468;48.838;9.330;2023-10-13T03:20:15;98267.59;;;17.23;62.28
55604;BME280;41468;48.838;9.330;2023-10-13T03:22:43;98264.13;;;17.16;63.93
55604;BME280;41468;48.838;9.330;2023-10-13T03:25:13;98264.72;;;17.00;64.01
55604;BME280;41468;48.838;9.330;2023-10-13T03:27:51;98265.09;;;17.02;64.72
55604;BME280;41468;48.838;9.330;2023-10-13T03:30:19;98260.84;;;16.94;64.87
55604;BME280;41468;48.838;9.330;2023-10-13T03:32:48;98268.91;;;16.77;66.20
55604;BME280;41468;48.838;9.330;2023-10-13T03:35:15;98261.00;;;16.76;65.63
55604;BME280;41468;48.838;9.330;2023-10-13T03:37:51;98260.63;;;16.77;63.94
55604;BME280;41468;48.838;9.330;2023-10-13T03:40:19;98255.59;;;16.65;65.94
55604;BME280;41468;48.838;9.330;2023-10-13T03:42:54;98252.50;;;16.63;65.82
55604;BME280;41468;48.838;9.330;2023-10-13T03:45:37;98251.34;;;16.61;65.33
55604;BME280;41468;48.838;9.330;2023-10-13T03:48:13;98252.13;;;16.61;65.23
55604;BME280;41468;48.838;9.330;2023-10-13T03:50:58;98247.44;;;16.58;65.95
55604;BME280;41468;48.838;9.330;2023-10-13T03:53:34;98260.06;;;16.52;65.75
55604;BME280;41468;48.838;9.330;2023-10-13T03:56:07;98245.88;;;16.53;66.18
55604;BME280;41468;48.838;9.330;2023-10-13T03:58:58;98252.50;;;16.60;65.16
55604;BME280;41468;48.838;9.330;2023-10-13T04:01:52;98250.19;;;16.58;65.75
55604;BME280;41468;48.838;9.330;2023-10-13T04:04:19;98249.03;;;16.52;66.47
55604;BME280;41468;48.838;9.330;2023-10-13T04:07:09;98253.75;;;16.55;65.27
55604;BME280;41468;48.838;9.330;2023-10-13T04:09:37;98254.19;;;16.50;65.67
55604;BME280;41468;48.838;9.330;2023-10-13T04:12:36;98256.72;;;16.33;66.94
55604;BME280;41468;48.838;9.330;2023-10-13T04:15:32;98253.88;;;16.44;65.80
55604;BME280;41468;48.838;9.330;2023-10-13T04:18:25;98253.78;;;16.51;67.32
55604;BME280;41468;48.838;9.330;2023-10-13T04:21:13;98263.25;;;16.47;65.94
55604;BME280;41468;48.838;9.330;2023-10-13T04:24:07;98253.75;;;16.55;64.79
55604;BME280;41468;48.838;9.330;2023-10-13T04:26:52;98247.78;;;16.60;64.80
55604;BME280;41468;48.838;9.330;2023-10-13T04:29:38;98246.19;;;16.63;63.87
55604;BME280;41468;48.838;9.330;2023-10-13T04:32:23;98251.69;;;16.63;64.14
55604;BME280;41468;48.838;9.330;2023-10-13T04:35:00;98250.44;;;16.71;63.21
55604;BME280;41468;48.838;9.330;2023-10-13T04:37:39;98244.91;;;16.74;63.81
55604;BME280;41468;48.838;9.330;2023-10-13T04:40:25;98238.09;;;16.86;62.23
55604;BME280;41468;48.838;9.330;2023-10-13T04:42:53;98242.38;;;16.91;61.50
55604;BME280;41468;48.838;9.330;2023-10-13T04:45:24;98236.91;;;16.87;62.46
55604;BME280;41468;48.838;9.330;2023-10-13T04:47:59;98239.16;;;16.96;61.10
55604;BME280;41468;48.838;9.330;2023-10-13T04:51:07;98233.59;;;16.99;60.74
55604;BME280;41468;48.838;9.330;2023-10-13T04:53:52;98232.78;;;17.03;60.23
55604;BME280;41468;48.838;9.330;2023-10-13T04:56:52;98228.78;;;17.07;60.69
55604;BME280;41468;48.838;9.330;2023-10-13T04:59:37;98227.88;;;17.17;59.83
55604;BME280;41468;48.838;9.330;2023-10-13T05:02:31;98225.63;;;17.09;60.68
55604;BME280;41468;48.838;9.330;2023-10-13T05:05:13;98224.09;;;17.04;61.07
55604;BME280;41468;48.838;9.330;2023-10-13T05:07:40;98221.34;;;17.04;60.89
55604;BME280;41468;48.838;9.330;2023-10-13T05:10:27;98229.56;;;17.08;61.16
55604;BME280;41468;48.838;9.330;2023-10-13T05:13:12;98220.59;;;17.00;61.35
55604;BME280;41468;48.838;9.330;2023-10-13T05:16:03;98212.75;;;16.95;62.27
55604;BME280;41468;48.838;9.330;2023-10-13T05:18:49;98217.94;;;16.93;62.19
55604;BME280;41468;48.838;9.330;2023-10-13T05:21:34;98214.84;;;16.87;62.66
55604;BME280;41468;48.838;9.330;2023-10-13T05:24:22;98212.13;;;16.84;62.67
55604;BME280;41468;48.838;9.330;2023-10-13T05:27:08;98216.47;;;16.81;62.99
55604;BME280;41468;48.838;9.330;2023-10-13T05:29:53;98212.94;;;16.81;62.44
55604;BME280;41468;48.838;9.330;2023-10-13T05:32:40;98213.69;;;16.85;62.08
55604;BME280;41468;48.838;9.330;2023-10-13T05:35:25;98210.50;;;16.86;61.86
55604;BME280;41468;48.838;9.330;2023-10-13T05:38:11;98204.66;;;16.81;61.99
55604;BME280;41468;48.838;9.330;2023-10-13T05:41:01;98199.97;;;16.77;62.17
55604;BME280;41468;48.838;9.330;2023-10-13T05:43:50;98206.75;;;16.69;62.76
55604;BME280;41468;48.838;9.330;2023-10-13T05:46:36;98202.84;;;16.67;62.63
55604;BME280;41468;48.838;9.330;2023-10-13T05:49:07;98206.41;;;16.64;62.86
55604;BME280;41468;48.838;9.330;2023-10-13T05:51:44;98214.25;;;16.65;63.39
55604;BME280;41468;48.838;9.330;2023-10-13T05:54:24;98211.94;;;16.64;63.24
55604;BME280;41468;48.838;9.330;2023-10-13T05:57:09;98215.84;;;16.66;63.06
55604;BME280;41468;48.838;9.330;2023-10-13T05:59:55;98220.22;;;16.60;63.42
55604;BME280;41468;48.838;9.330;2023-10-13T06:02:40;98209.56;;;16.66;62.73
55604;BME280;41468;48.838;9.330;2023-10-13T06:05:25;98217.69;;;16.76;61.89
55604;BME280;41468;48.838;9.330;2023-10-13T06:08:11;98220.38;;;16.84;61.73
55604;BME280;41468;48.838;9.330;2023-10-13T06:11:03;98226.94;;;16.97;61.34
55604;BME280;41468;48.838;9.330;2023-10-13T06:13:48;98219.41;;;17.01;61.03
55604;BME280;41468;48.838;9.330;2023-10-13T06:16:33;98216.22;;;17.03;60.52
55604;BME280;41468;48.838;9.330;2023-10-13T06:19:19;98229.50;;;17.11;60.42
55604;BME280;41468;48.838;9.330;2023-10-13T06:22:04;98229.09;;;17.13;60.94
55604;BME280;41468;48.838;9.330;2023-10-13T06:24:50;98232.19;;;17.18;60.88
55604;BME280;41468;48.838;9.330;2023-10-13T06:27:35;98233.38;;;17.17;60.79
55604;BME280;41468;48.838;9.330;2023-10-13T06:30:21;98237.25;;;17.23;61.17
55604;BME280;41468;48.838;9.330;2023-10-13T06:32:47;98235.63;;;17.26;61.08
55604;BME280;41468;48.838;9.330;2023-10-13T06:35:16;98234.75;;;17.33;61.44
55604;BME280;41468;48.838;9.330;2023-10-13T06:37:53;98232.03;;;17.29;62.22
55604;BME280;41468;48.838;9.330;2023-10-13T06:40:20;98232.19;;;17.18;63.00
55604;BME280;41468;48.838;9.330;2023-10-13T06:43:03;98235.00;;;17.15;63.58
55604;BME280;41468;48.838;9.330;2023-10-13T06:45:48;98232.09;;;17.26;63.96
55604;BME280;41468;48.838;9.330;2023-10-13T06:48:27;98228.59;;;17.21;64.18
55604;BME280;41468;48.838;9.330;2023-10-13T06:51:00;98229.44;;;17.18;64.00
55604;BME280;41468;48.838;9.330;2023-10-13T06:53:36;98230.63;;;17.17;64.35
55604;BME280;41468;48.838;9.330;2023-10-13T06:56:06;98228.19;;;17.23;63.91
55604;BME280;41468;48.838;9.330;2023-10-13T06:58:33;98218.19;;;17.33;63.20
55604;BME280;41468;48.838;9.330;2023-10-13T07:01:06;98222.31;;;17.48;62.19
55604;BME280;41468;48.838;9.330;2023-10-13T07:03:34;98228.44;;;17.63;61.56
55604;BME280;41468;48.838;9.330;2023-10-13T07:06:05;98226.44;;;17.63;60.53
55604;BME280;41468;48.838;9.330;2023-10-13T07:08:42;98230.06;;;17.60;60.82
55604;BME280;41468;48.838;9.330;2023-10-13T07:11:25;98226.44;;;17.63;61.38
55604;BME280;41468;48.838;9.330;2023-10-13T07:14:04;98228.69;;;17.72;60.80
55604;BME280;41468;48.838;9.330;2023-10-13T07:16:43;98234.44;;;17.85;60.32
55604;BME280;41468;48.838;9.330;2023-10-13T07:19:13;98231.06;;;17.97;59.92
55604;BME280;41468;48.838;9.330;2023-10-13T07:21:47;98236.13;;;18.02;59.55
55604;BME280;41468;48.838;9.330;2023-10-13T07:24:14;98239.63;;;18.06;59.77
55604;BME280;41468;48.838;9.330;2023-10-13T07:26:42;98233.09;;;18.20;59.12
55604;BME280;41468;48.838;9.330;2023-10-13T07:29:10;98230.63;;;18.26;59.09
55604;BME280;41468;48.838;9.330;2023-10-13T07:31:37;98233.97;;;18.37;58.34
55604;BME280;41468;48.838;9.330;2023-10-13T07:34:06;98219.63;;;18.46;58.46
55604;BME280;41468;48.838;9.330;2023-10-13T07:36:40;98226.50;;;18.58;58.98
55604;BME280;41468;48.838;9.330;2023-10-13T07:39:09;98227.53;;;18.67;58.95
55604;BME280;41468;48.838;9.330;2023-10-13T07:41:56;98226.22;;;18.72;58.34
55604;BME280;41468;48.838;9.330;2023-10-13T07:44:32;98229.34;;;18.74;57.96
55604;BME280;41468;48.838;9.330;2023-10-13T07:47:03;98222.88;;;18.84;57.99
55604;BME280;41468;48.838;9.330;2023-10-13T07:49:38;98224.66;;;18.94;57.14
55604;BME280;41468;48.838;9.330;2023-10-13T07:52:08;98229.63;;;19.03;57.01
55604;BME280;41468;48.838;9.330;2023-10-13T07:54:54;98229.75;;;19.16;56.80
55604;BME280;41468;48.838;9.330;2023-10-13T07:57:51;98214.75;;;19.33;54.55
55604;BME280;41468;48.838;9.330;2023-10-13T08:00:22;98215.28;;;19.45;54.74
55604;BME280;41468;48.838;9.330;2023-10-13T08:02:59;98221.50;;;19.69;53.94
55604;BME280;41468;48.838;9.330;2023-10-13T08:05:54;98210.28;;;19.92;53.55
55604;BME280;41468;48.838;9.330;2023-10-13T08:08:31;98220.81;;;20.14;52.08
55604;BME280;41468;48.838;9.330;2023-10-13T08:11:12;98208.19;;;20.29;50.25
55604;BME280;41468;48.838;9.330;2023-10-13T08:13:55;98207.03;;;20.43;51.64
55604;BME280;41468;48.838;9.330;2023-10-13T08:16:39;98210.03;;;20.48;50.78
55604;BME280;41468;48.838;9.330;2023-10-13T08:19:14;98203.34;;;20.62;50.24
55604;BME280;41468;48.838;9.330;2023-10-13T08:21:46;98210.97;;;20.87;49.89
55604;BME280;41468;48.838;9.330;2023-10-13T08:24:18;98201.81;;;21.03;48.74
55604;BME280;41468;48.838;9.330;2023-10-13T08:26:53;98196.09;;;21.23;48.89
55604;BME280;41468;48.838;9.330;2023-10-13T08:29:39;98197.44;;;21.31;49.15
55604;BME280;41468;48.838;9.330;2023-10-13T08:32:24;98199.78;;;21.46;47.91
55604;BME280;41468;48.838;9.330;2023-10-13T08:35:01;98191.13;;;21.56;47.10
55604;BME280;41468;48.838;9.330;2023-10-13T08:37:36;98188.78;;;21.68;46.42
55604;BME280;41468;48.838;9.330;2023-10-13T08:40:22;98191.13;;;21.82;45.86
55604;BME280;41468;48.838;9.330;2023-10-13T08:43:10;98190.66;;;22.09;45.79
55604;BME280;41468;48.838;9.330;2023-10-13T08:45:40;98189.41;;;22.23;45.25
55604;BME280;41468;48.838;9.330;2023-10-13T08:48:08;98180.97;;;22.48;45.62
55604;BME280;41468;48.838;9.330;2023-10-13T08:50:46;98174.00;;;22.66;45.69
55604;BME280;41468;48.838;9.330;2023-10-13T08:53:18;98178.72;;;22.78;44.49
55604;BME280;41468;48.838;9.330;2023-10-13T08:58:46;98178.97;;;23.15;43.55
55604;BME280;41468;48.838;9.330;2023-10-13T09:01:31;98177.38;;;23.36;44.24
55604;BME280;41468;48.838;9.330;2023-10-13T09:04:04;98170.47;;;23.50;42.75
55604;BME280;41468;48.838;9.330;2023-10-13T09:07:02;98165.19;;;23.74;42.85
55604;BME280;41468;48.838;9.330;2023-10-13T09:09:46;98168.16;;;23.89;42.13
55604;BME280;41468;48.838;9.330;2023-10-13T09:12:27;98171.53;;;23.74;42.02
55604;BME280;41468;48.838;9.330;2023-10-13T09:15:03;98175.78;;;23.57;42.43
55604;BME280;41468;48.838;9.330;2023-10-13T09:17:48;98166.91;;;23.80;41.74
55604;BME280;41468;48.838;9.330;2023-10-13T09:20:29;98166.84;;;24.21;42.42
55604;BME280;41468;48.838;9.330;2023-10-13T09:23:19;98168.84;;;24.30;42.61
55604;BME280;41468;48.838;9.330;2023-10-13T09:26:06;98170.59;;;24.45;39.56
55604;BME280;41468;48.838;9.330;2023-10-13T09:28:36;98159.22;;;24.86;40.01
55604;BME280;41468;48.838;9.330;2023-10-13T09:31:03;98166.16;;;25.09;38.60
55604;BME280;41468;48.838;9.330;2023-10-13T09:33:36;98172.22;;;25.17;37.13
55604;BME280;41468;48.838;9.330;2023-10-13T09:36:04;98168.41;;;25.38;37.45
55604;BME280;41468;48.838;9.330;2023-10-13T09:38:35;98162.81;;;25.47;37.24
55604;BME280;41468;48.838;9.330;2023-10-13T09:41:28;98158.06;;;25.63;36.90
55604;BME280;41468;48.838;9.330;2023-10-13T09:43:59;98151.56;;;25.66;37.81
55604;BME280;41468;48.838;9.330;2023-10-13T09:46:27;98148.34;;;25.82;37.85
55604;BME280;41468;48.838;9.330;2023-10-13T09:49:13;98137.16;;;25.82;37.20
55604;BME280;41468;48.838;9.330;2023-10-13T09:52:03;98135.16;;;25.73;37.62
55604;BME280;41468;48.838;9.330;2023-10-13T09:54:39;98129.66;;;25.64;36.84
55604;BME280;41468;48.838;9.330;2023-10-13T09:57:15;98144.09;;;25.29;38.01
55604;BME280;41468;48.838;9.330;2023-10-13T09:59:49;98127.56;;;25.41;38.71
55604;BME280;41468;48.838;9.330;2023-10-13T10:02:19;98124.69;;;25.92;39.80
55604;BME280;41468;48.838;9.330;2023-10-13T10:04:54;98125.47;;;25.93;38.86
55604;BME280;41468;48.838;9.330;2023-10-13T10:07:26;98119.28;;;25.89;37.07
55604;BME280;41468;48.838;9.330;2023-10-13T10:10:00;98115.94;;;25.99;37.31
55604;BME280;41468;48.838;9.330;2023-10-13T10:15:32;98110.53;;;26.35;38.24
55604;BME280;41468;48.838;9.330;2023-10-13T10:18:02;98107.94;;;26.46;36.30
55604;BME280;41468;48.838;9.330;2023-10-13T10:20:31;98106.63;;;26.56;36.72
55604;BME280;41468;48.838;9.330;2023-10-13T10:23:28;98103.53;;;26.84;34.86
55604;BME280;41468;48.838;9.330;2023-10-13T10:26:09;98106.72;;;26.92;35.02
55604;BME280;41468;48.838;9.330;2023-10-13T10:28:43;98100.56;;;26.87;35.31
55604;BME280;41468;48.838;9.330;2023-10-13T10:31:11;98101.44;;;27.08;35.47
55604;BME280;41468;48.838;9.330;2023-10-13T10:33:44;98090.69;;;27.07;35.01
55604;BME280;41468;48.838;9.330;2023-10-13T10:36:22;98087.91;;;26.77;35.32
55604;BME280;41468;48.838;9.330;2023-10-13T10:38:55;98094.66;;;26.56;35.58
55604;BME280;41468;48.838;9.330;2023-10-13T10:41:31;98084.72;;;26.55;36.65
55604;BME280;41468;48.838;9.330;2023-10-13T10:44:19;98077.88;;;26.71;35.12
55604;BME280;41468;48.838;9.330;2023-10-13T10:47:13;98071.88;;;26.93;33.57
55604;BME280;41468;48.838;9.330;2023-10-13T10:49:58;98069.25;;;27.19;33.83
55604;BME280;41468;48.838;9.330;2023-10-13T10:52:27;98061.13;;;27.21;34.36
55604;BME280;41468;48.838;9.330;2023-10-13T10:54:59;98063.38;;;27.17;33.59
55604;BME280;41468;48.838;9.330;2023-10-13T10:57:26;98055.56;;;26.76;33.79
55604;BME280;41468;48.838;9.330;2023-10-13T10:59:59;98052.66;;;26.85;33.87
55604;BME280;41468;48.838;9.330;2023-10-13T11:02:41;98057.88;;;26.93;33.18
55604;BME280;41468;48.838;9.330;2023-10-13T11:05:07;98053.00;;;27.23;34.16
55604;BME280;41468;48.838;9.330;2023-10-13T11:07:36;98039.53;;;27.62;32.70
55604;BME280;41468;48.838;9.330;2023-10-13T11:10:10;98029.09;;;28.04;33.87
55604;BME280;41468;48.838;9.330;2023-10-13T11:13:04;98029.13;;;28.30;33.50
55604;BME280;41468;48.838;9.330;2023-10-13T11:15:48;98021.38;;;27.98;34.01
55604;BME280;41468;48.838;9.330;2023-10-13T11:18:17;98022.16;;;27.79;33.83
55604;BME280;41468;48.838;9.330;2023-10-13T11:20:55;98023.78;;;27.85;33.35
55604;BME280;41468;48.838;9.330;2023-10-13T11:23:22;98013.59;;;28.08;32.23
55604;BME280;41468;48.838;9.330;2023-10-13T11:25:59;98003.34;;;28.57;31.23
55604;BME280;41468;48.838;9.330;2023-10-13T11:28:26;98004.34;;;28.54;32.43
55604;BME280;41468;48.838;9.330;2023-10-13T11:30:58;97995.28;;;28.71;31.25
55604;BME280;41468;48.838;9.330;2023-10-13T11:33:43;97992.63;;;28.93;30.49
55604;BME280;41468;48.838;9.330;2023-10-13T11:36:13;97994.88;;;29.15;30.73
55604;BME280;41468;48.838;9.330;2023-10-13T11:38:51;97998.97;;;29.20;31.37
55604;BME280;41468;48.838;9.330;2023-10-13T11:41:24;98001.75;;;29.14;31.29
55604;BME280;41468;48.838;9.330;2023-10-13T11:43:59;97992.25;;;29.06;30.02
55604;BME280;41468;48.838;9.330;2023-10-13T11:46:54;97991.09;;;28.92;30.11
55604;BME280;41468;48.838;9.330;2023-10-13T11:49:39;97992.66;;;28.99;30.17
55604;BME280;41468;48.838;9.330;2023-10-13T11:52:06;97991.47;;;29.05;30.51
55604;BME280;41468;48.838;9.330;2023-10-13T11:54:54;97993.31;;;29.14;30.14
55604;BME280;41468;48.838;9.330;2023-10-13T11:57:21;97982.69;;;29.35;30.22
55604;BME280;41468;48.838;9.330;2023-10-13T11:59:49;97984.53;;;29.49;30.00
55604;BME280;41468;48.838;9.330;2023-10-13T12:02:23;97978.75;;;29.64;29.35
55604;BME280;41468;48.838;9.330;2023-10-13T12:04:52;97971.78;;;29.54;29.78
55604;BME280;41468;48.838;9.330;2023-10-13T12:07:21;97972.81;;;29.57;29.47
55604;BME280;41468;48.838;9.330;2023-10-13T12:10:12;97961.56;;;29.57;29.69
55604;BME280;41468;48.838;9.330;2023-10-13T12:12:43;97955.78;;;29.71;29.70
55604;BME280;41468;48.838;9.330;2023-10-13T12:15:13;97953.09;;;29.45;30.06
55604;BME280;41468;48.838;9.330;2023-10-13T12:17:52;97959.72;;;29.42;29.12
55604;BME280;41468;48.838;9.330;2023-10-13T12:20:19;97937.97;;;29.37;28.99
55604;BME280;41468;48.838;9.330;2023-10-13T12:22:59;97947.50;;;29.57;29.20
55604;BME280;41468;48.838;9.330;2023-10-13T12:25:39;97942.97;;;29.65;29.29
55604;BME280;41468;48.838;9.330;2023-10-13T12:28:23;97940.09;;;29.59;30.01
55604;BME280;41468;48.838;9.330;2023-10-13T12:30:50;97934.75;;;29.61;29.64
55604;BME280;41468;48.838;9.330;2023-10-13T12:33:20;97934.16;;;29.46;29.89
55604;BME280;41468;48.838;9.330;2023-10-13T12:36:06;97926.63;;;29.69;29.33
55604;BME280;41468;48.838;9.330;2023-10-13T12:38:37;97918.69;;;29.73;30.11
55604;BME280;41468;48.838;9.330;2023-10-13T12:41:18;97923.03;;;29.74;29.90
55604;BME280;41468;48.838;9.330;2023-10-13T12:44:05;97924.75;;;29.60;29.41
55604;BME280;41468;48.838;9.330;2023-10-13T12:46:51;97913.25;;;29.58;28.81
55604;BME280;41468;48.838;9.330;2023-10-13T12:49:38;97913.00;;;29.62;28.57
55604;BME280;41468;48.838;9.330;2023-10-13T12:52:08;97907.09;;;29.48;29.29
55604;BME280;41468;48.838;9.330;2023-10-13T12:54:47;97907.78;;;29.32;29.40
55604;BME280;41468;48.838;9.330;2023-10-13T12:57:26;97911.06;;;29.25;29.16
55604;BME280;41468;48.838;9.330;2023-10-13T12:59:54;97906.06;;;28.97;29.59
55604;BME280;41468;48.838;9.330;2023-10-13T13:02:21;97897.97;;;28.68;30.78
55604;BME280;41468;48.838;9.330;2023-10-13T13:04:53;97896.59;;;28.52;31.63
55604;BME280;41468;48.838;9.330;2023-10-13T13:07:32;97890.56;;;28.33;30.52
55604;BME280;41468;48.838;9.330;2023-10-13T13:10:10;97887.34;;;28.14;29.88
55604;BME280;41468;48.838;9.330;2023-10-13T13:12:38;97883.34;;;28.26;30.99
55604;BME280;41468;48.838;9.330;2023-10-13T13:15:05;97878.47;;;28.53;31.61
55604;BME280;41468;48.838;9.330;2023-10-13T13:17:36;97877.03;;;28.69;30.28
55604;BME280;41468;48.838;9.330;2023-10-13T13:20:03;97864.78;;;28.72;30.10
55604;BME280;41468;48.838;9.330;2023-10-13T13:22:38;97865.06;;;28.74;31.07
55604;BME280;41468;48.838;9.330;2023-10-13T13:25:11;97855.16;;;28.84;31.52
55604;BME280;41468;48.838;9.330;2023-10-13T13:27:38;97860.31;;;28.91;30.42
55604;BME280;41468;48.838;9.330;2023-10-13T13:30:08;97857.00;;;28.98;28.78
55604;BME280;41468;48.838;9.330;2023-10-13T13:32:39;97855.06;;;29.10;30.40
55604;BME280;41468;48.838;9.330;2023-10-13T13:35:07;97853.28;;;29.13;29.58
55604;BME280;41468;48.838;9.330;2023-10-13T13:37:50;97849.50;;;29.27;29.70
55604;BME280;41468;48.838;9.330;2023-10-13T13:40:17;97834.94;;;29.28;29.87
55604;BME280;41468;48.838;9.330;2023-10-13T13:42:45;97828.25;;;29.20;30.16
55604;BME280;41468;48.838;9.330;2023-10-13T13:45:16;97830.28;;;29.20;29.54
55604;BME280;41468;48.838;9.330;2023-10-13T13:47:54;97822.63;;;29.20;29.59
55604;BME280;41468;48.838;9.330;2023-10-13T13:50:25;97813.13;;;29.06;29.66
55604;BME280;41468;48.838;9.330;2023-10-13T13:52:57;97814.63;;;28.96;29.68
55604;BME280;41468;48.838;9.330;2023-10-13T13:55:25;97807.69;;;28.92;29.76
55604;BME280;41468;48.838;9.330;2023-10-13T13:57:56;97795.69;;;28.91;31.04